sensor_id;sensor_type;location;lat;lon;timestamp;pressure;altitude;pressure_sealevel;temperature;humidity
78615;BME280;67937;52.488;20.952;2023-05-29T00:00:00;100979.81;;;8.95;64.47
78615;BME280;67937;52.488;20.952;2023-05-29T00:02:31;100979.31;;;8.89;64.54
78615;BME280;67937;52.488;20.952;2023-05-29T00:04:59;100975.63;;;8.84;64.61
78615;BME280;67937;52.488;20.952;2023-05-29T00:07:30;100974.36;;;8.79;64.82
78615;BME280;67937;52.488;20.952;2023-05-29T00:09:59;100973.20;;;8.75;64.93
78615;BME280;67937;52.488;20.952;2023-05-29T00:12:27;100975.38;;;8.71;64.91
78615;BME280;67937;52.488;20.952;2023-05-29T00:14:55;100972.23;;;8.67;65.01
78615;BME280;67937;52.488;20.952;2023-05-29T00:17:24;100975.49;;;8.63;65.09
78615;BME280;67937;52.488;20.952;2023-05-29T00:19:52;100971.48;;;8.60;65.22
78615;BME280;67937;52.488;20.952;2023-05-29T00:22:21;100970.04;;;8.58;65.18
78615;BME280;67937;52.488;20.952;2023-05-29T00:24:49;100970.55;;;8.55;65.23
78615;BME280;67937;52.488;20.952;2023-05-29T00:27:17;100969.09;;;8.53;65.21
78615;BME280;67937;52.488;20.952;2023-05-29T00:29:46;100967.39;;;8.49;65.34
78615;BME280;67937;52.488;20.952;2023-05-29T00:32:14;100967.73;;;8.47;65.30
78615;BME280;67937;52.488;20.952;2023-05-29T00:34:42;100970.00;;;8.44;65.45
78615;BME280;67937;52.488;20.952;2023-05-29T00:37:10;100972.19;;;8.40;65.43
78615;BME280;67937;52.488;20.952;2023-05-29T00:39:38;100973.54;;;8.35;65.62
78615;BME280;67937;52.488;20.952;2023-05-29T00:42:06;100977.39;;;8.32;65.62
78615;BME280;67937;52.488;20.952;2023-05-29T00:44:34;100977.81;;;8.31;65.62
78615;BME280;67937;52.488;20.952;2023-05-29T00:47:03;100975.46;;;8.29;65.63
78615;BME280;67937;52.488;20.952;2023-05-29T00:49:32;100976.08;;;8.28;65.65
78615;BME280;67937;52.488;20.952;2023-05-29T00:52:02;100974.90;;;8.27;65.78
78615;BME280;67937;52.488;20.952;2023-05-29T00:54:33;100971.85;;;8.28;65.76
78615;BME280;67937;52.488;20.952;2023-05-29T00:57:02;100973.17;;;8.26;65.37
78615;BME280;67937;52.488;20.952;2023-05-29T00:59:32;100977.00;;;8.24;65.54
78615;BME280;67937;52.488;20.952;2023-05-29T01:02:02;100976.29;;;8.21;65.72
78615;BME280;67937;52.488;20.952;2023-05-29T01:04:31;100979.22;;;8.19;65.85
78615;BME280;67937;52.488;20.952;2023-05-29T01:07:00;100977.98;;;8.16;65.89
78615;BME280;67937;52.488;20.952;2023-05-29T01:09:31;100975.15;;;8.13;66.02
78615;BME280;67937;52.488;20.952;2023-05-29T01:17:42;100973.41;;;8.13;66.15
78615;BME280;67937;52.488;20.952;2023-05-29T01:28:44;100974.20;;;8.00;66.00
78615;BME280;67937;52.488;20.952;2023-05-29T01:31:19;100975.25;;;7.94;66.14
78615;BME280;67937;52.488;20.952;2023-05-29T01:33:56;100975.80;;;7.90;66.36
78615;BME280;67937;52.488;20.952;2023-05-29T01:36:25;100970.84;;;7.85;66.45
78615;BME280;67937;52.488;20.952;2023-05-29T01:38:56;100969.88;;;7.80;66.64
78615;BME280;67937;52.488;20.952;2023-05-29T01:41:26;100971.94;;;7.78;66.63
78615;BME280;67937;52.488;20.952;2023-05-29T01:43:56;100975.95;;;7.75;66.88
78615;BME280;67937;52.488;20.952;2023-05-29T01:46:26;100973.77;;;7.73;66.92
78615;BME280;67937;52.488;20.952;2023-05-29T01:48:54;100977.02;;;7.75;66.82
78615;BME280;67937;52.488;20.952;2023-05-29T01:51:22;100972.36;;;7.73;66.79
78615;BME280;67937;52.488;20.952;2023-05-29T01:53:51;100968.02;;;7.70;66.88
78615;BME280;67937;52.488;20.952;2023-05-29T01:56:19;100970.80;;;7.67;67.04
78615;BME280;67937;52.488;20.952;2023-05-29T01:58:48;100970.42;;;7.65;67.14
78615;BME280;67937;52.488;20.952;2023-05-29T02:01:19;100966.10;;;7.64;67.17
78615;BME280;67937;52.488;20.952;2023-05-29T02:03:48;100963.37;;;7.62;67.22
78615;BME280;67937;52.488;20.952;2023-05-29T02:06:18;100964.95;;;7.62;67.19
78615;BME280;67937;52.488;20.952;2023-05-29T02:08:46;100963.02;;;7.62;67.29
78615;BME280;67937;52.488;20.952;2023-05-29T02:11:14;100960.86;;;7.60;67.44
78615;BME280;67937;52.488;20.952;2023-05-29T02:13:43;100957.33;;;7.57;67.43
78615;BME280;67937;52.488;20.952;2023-05-29T02:16:11;100957.77;;;7.56;67.56
78615;BME280;67937;52.488;20.952;2023-05-29T02:18:39;100952.98;;;7.54;67.44
78615;BME280;67937;52.488;20.952;2023-05-29T02:21:07;100952.04;;;7.51;67.51
78615;BME280;67937;52.488;20.952;2023-05-29T02:23:35;100953.94;;;7.49;67.71
78615;BME280;67937;52.488;20.952;2023-05-29T02:26:04;100955.66;;;7.46;67.69
78615;BME280;67937;52.488;20.952;2023-05-29T02:28:32;100953.70;;;7.47;67.92
78615;BME280;67937;52.488;20.952;2023-05-29T02:31:02;100952.48;;;7.47;68.00
78615;BME280;67937;52.488;20.952;2023-05-29T02:33:30;100950.53;;;7.41;68.10
78615;BME280;67937;52.488;20.952;2023-05-29T02:35:58;100943.86;;;7.35;68.35
78615;BME280;67937;52.488;20.952;2023-05-29T02:38:26;100945.62;;;7.25;68.70
78615;BME280;67937;52.488;20.952;2023-05-29T02:40:55;100946.45;;;7.11;69.06
78615;BME280;67937;52.488;20.952;2023-05-29T02:43:23;100944.55;;;7.10;69.25
78615;BME280;67937;52.488;20.952;2023-05-29T02:45:51;100941.13;;;7.24;68.82
78615;BME280;67937;52.488;20.952;2023-05-29T02:48:19;100945.05;;;7.33;68.96
78615;BME280;67937;52.488;20.952;2023-05-29T02:50:47;100944.30;;;7.39;68.63
78615;BME280;67937;52.488;20.952;2023-05-29T02:53:15;100939.58;;;7.42;68.87
78615;BME280;67937;52.488;20.952;2023-05-29T02:55:43;100944.73;;;7.48;68.78
78615;BME280;67937;52.488;20.952;2023-05-29T02:58:12;100945.09;;;7.53;68.73
78615;BME280;67937;52.488;20.952;2023-05-29T03:00:40;100944.57;;;7.56;68.57
78615;BME280;67937;52.488;20.952;2023-05-29T03:03:08;100947.66;;;7.57;68.66
78615;BME280;67937;52.488;20.952;2023-05-29T03:05:36;100942.47;;;7.59;68.34
78615;BME280;67937;52.488;20.952;2023-05-29T03:08:05;100944.42;;;7.59;68.78
78615;BME280;67937;52.488;20.952;2023-05-29T03:10:33;100945.02;;;7.57;68.51
78615;BME280;67937;52.488;20.952;2023-05-29T03:13:01;100944.67;;;7.60;68.54
78615;BME280;67937;52.488;20.952;2023-05-29T03:15:30;100948.99;;;7.59;68.90
78615;BME280;67937;52.488;20.952;2023-05-29T03:17:58;100944.27;;;7.62;68.65
78615;BME280;67937;52.488;20.952;2023-05-29T03:20:26;100945.16;;;7.70;68.50
78615;BME280;67937;52.488;20.952;2023-05-29T03:22:55;100953.85;;;7.69;68.64
78615;BME280;67937;52.488;20.952;2023-05-29T03:25:23;100959.48;;;7.62;69.58
78615;BME280;67937;52.488;20.952;2023-05-29T03:27:52;100961.30;;;7.59;69.38
78615;BME280;67937;52.488;20.952;2023-05-29T03:30:20;100960.79;;;7.70;69.23
78615;BME280;67937;52.488;20.952;2023-05-29T03:32:48;100954.82;;;7.83;68.89
78615;BME280;67937;52.488;20.952;2023-05-29T03:35:16;100954.14;;;7.91;69.14
78615;BME280;67937;52.488;20.952;2023-05-29T03:37:44;100953.34;;;7.99;69.05
78615;BME280;67937;52.488;20.952;2023-05-29T03:40:12;100955.92;;;8.06;68.94
78615;BME280;67937;52.488;20.952;2023-05-29T03:42:40;100956.71;;;8.13;68.83
78615;BME280;67937;52.488;20.952;2023-05-29T03:45:09;100960.77;;;8.22;68.80
78615;BME280;67937;52.488;20.952;2023-05-29T03:47:37;100960.20;;;8.29;68.83
78615;BME280;67937;52.488;20.952;2023-05-29T03:50:05;100958.63;;;8.37;68.82
78615;BME280;67937;52.488;20.952;2023-05-29T03:52:34;100955.90;;;8.44;68.79
78615;BME280;67937;52.488;20.952;2023-05-29T03:55:02;100958.61;;;8.52;68.83
78615;BME280;67937;52.488;20.952;2023-05-29T03:57:30;100964.41;;;8.60;68.87
78615;BME280;67937;52.488;20.952;2023-05-29T03:59:58;100966.73;;;8.68;69.31
78615;BME280;67937;52.488;20.952;2023-05-29T04:02:27;100963.88;;;8.77;69.41
78615;BME280;67937;52.488;20.952;2023-05-29T04:04:55;100965.45;;;8.86;69.31
78615;BME280;67937;52.488;20.952;2023-05-29T04:07:23;100971.80;;;8.97;69.26
78615;BME280;67937;52.488;20.952;2023-05-29T04:09:52;100970.08;;;9.08;69.16
78615;BME280;67937;52.488;20.952;2023-05-29T04:12:20;100973.45;;;9.18;69.45
78615;BME280;67937;52.488;20.952;2023-05-29T04:14:48;100973.50;;;9.28;69.70
78615;BME280;67937;52.488;20.952;2023-05-29T04:17:16;100971.30;;;9.41;70.11
78615;BME280;67937;52.488;20.952;2023-05-29T04:19:44;100971.91;;;9.53;69.80
78615;BME280;67937;52.488;20.952;2023-05-29T04:22:12;100971.98;;;9.65;69.89
78615;BME280;67937;52.488;20.952;2023-05-29T04:24:41;100978.70;;;9.78;70.12
78615;BME280;67937;52.488;20.952;2023-05-29T04:27:09;100975.39;;;9.91;71.18
78615;BME280;67937;52.488;20.952;2023-05-29T04:29:41;100978.56;;;10.04;71.33
78615;BME280;67937;52.488;20.952;2023-05-29T04:32:10;100977.35;;;10.17;72.14
78615;BME280;67937;52.488;20.952;2023-05-29T04:34:39;100976.98;;;10.30;71.93
78615;BME280;67937;52.488;20.952;2023-05-29T04:37:08;100977.59;;;10.45;71.69
78615;BME280;67937;52.488;20.952;2023-05-29T04:39:36;100974.52;;;10.59;72.09
78615;BME280;67937;52.488;20.952;2023-05-29T04:42:05;100974.99;;;10.72;70.80
78615;BME280;67937;52.488;20.952;2023-05-29T04:44:33;100971.63;;;10.84;70.88
78615;BME280;67937;52.488;20.952;2023-05-29T04:47:01;100971.70;;;10.98;70.99
78615;BME280;67937;52.488;20.952;2023-05-29T04:49:30;100968.60;;;11.12;71.42
78615;BME280;67937;52.488;20.952;2023-05-29T04:51:58;100965.92;;;11.27;71.40
78615;BME280;67937;52.488;20.952;2023-05-29T04:54:27;100962.63;;;11.42;71.57
78615;BME280;67937;52.488;20.952;2023-05-29T04:56:55;100962.80;;;11.59;71.93
78615;BME280;67937;52.488;20.952;2023-05-29T04:59:23;100964.23;;;11.78;72.26
78615;BME280;67937;52.488;20.952;2023-05-29T05:01:51;100957.07;;;11.91;72.60
78615;BME280;67937;52.488;20.952;2023-05-29T05:04:19;100958.29;;;12.08;72.39
78615;BME280;67937;52.488;20.952;2023-05-29T05:06:47;100959.30;;;12.22;72.13
78615;BME280;67937;52.488;20.952;2023-05-29T05:09:15;100955.54;;;12.39;71.92
78615;BME280;67937;52.488;20.952;2023-05-29T05:11:43;100954.80;;;12.53;71.37
78615;BME280;67937;52.488;20.952;2023-05-29T05:14:12;100953.25;;;12.68;71.26
78615;BME280;67937;52.488;20.952;2023-05-29T05:16:40;100950.46;;;12.81;71.01
78615;BME280;67937;52.488;20.952;2023-05-29T05:19:07;100951.23;;;12.96;70.52
78615;BME280;67937;52.488;20.952;2023-05-29T05:21:36;100948.54;;;13.10;69.88
78615;BME280;67937;52.488;20.952;2023-05-29T05:24:04;100949.86;;;13.24;69.41
78615;BME280;67937;52.488;20.952;2023-05-29T05:26:32;100954.79;;;13.38;68.87
78615;BME280;67937;52.488;20.952;2023-05-29T05:29:00;100950.73;;;13.52;68.81
78615;BME280;67937;52.488;20.952;2023-05-29T05:31:28;100949.91;;;13.69;68.79
78615;BME280;67937;52.488;20.952;2023-05-29T05:33:56;100950.73;;;13.85;68.08
78615;BME280;67937;52.488;20.952;2023-05-29T05:36:24;100955.99;;;14.02;68.22
78615;BME280;67937;52.488;20.952;2023-05-29T05:38:52;100957.04;;;14.21;67.82
78615;BME280;67937;52.488;20.952;2023-05-29T05:41:20;100957.32;;;14.37;66.90
78615;BME280;67937;52.488;20.952;2023-05-29T05:43:49;100957.75;;;14.54;66.90
78615;BME280;67937;52.488;20.952;2023-05-29T05:46:18;100963.40;;;14.73;64.61
78615;BME280;67937;52.488;20.952;2023-05-29T05:48:46;100965.02;;;14.89;65.22
78615;BME280;67937;52.488;20.952;2023-05-29T05:51:14;100963.48;;;15.02;64.89
78615;BME280;67937;52.488;20.952;2023-05-29T05:53:42;100959.23;;;15.16;65.11
78615;BME280;67937;52.488;20.952;2023-05-29T05:56:10;100961.45;;;15.35;65.07
78615;BME280;67937;52.488;20.952;2023-05-29T05:58:38;100955.63;;;15.55;64.81
78615;BME280;67937;52.488;20.952;2023-05-29T06:01:08;100952.88;;;15.69;64.23
78615;BME280;67937;52.488;20.952;2023-05-29T06:03:37;100953.30;;;15.84;64.16
78615;BME280;67937;52.488;20.952;2023-05-29T06:06:05;100953.85;;;16.03;62.84
78615;BME280;67937;52.488;20.952;2023-05-29T06:08:34;100952.04;;;16.14;62.38
78615;BME280;67937;52.488;20.952;2023-05-29T06:11:02;100950.04;;;16.26;62.13
78615;BME280;67937;52.488;20.952;2023-05-29T06:13:30;100946.73;;;16.42;61.34
78615;BME280;67937;52.488;20.952;2023-05-29T06:15:59;100945.20;;;16.53;60.85
78615;BME280;67937;52.488;20.952;2023-05-29T06:18:27;100944.43;;;16.69;59.22
78615;BME280;67937;52.488;20.952;2023-05-29T06:20:55;100946.66;;;16.80;59.36
78615;BME280;67937;52.488;20.952;2023-05-29T06:23:23;100947.77;;;16.93;59.18
78615;BME280;67937;52.488;20.952;2023-05-29T06:25:51;100949.45;;;17.03;58.63
78615;BME280;67937;52.488;20.952;2023-05-29T06:28:19;100949.98;;;17.16;58.57
78615;BME280;67937;52.488;20.952;2023-05-29T06:30:47;100952.55;;;17.33;58.48
78615;BME280;67937;52.488;20.952;2023-05-29T06:33:16;100953.09;;;17.44;57.19
78615;BME280;67937;52.488;20.952;2023-05-29T06:35:44;100952.05;;;17.56;57.23
78615;BME280;67937;52.488;20.952;2023-05-29T06:38:13;100956.91;;;17.68;56.77
78615;BME280;67937;52.488;20.952;2023-05-29T06:40:41;100959.39;;;17.86;55.97
78615;BME280;67937;52.488;20.952;2023-05-29T06:43:10;100957.25;;;17.99;55.20
78615;BME280;67937;52.488;20.952;2023-05-29T06:45:38;100955.02;;;18.09;55.04
78615;BME280;67937;52.488;20.952;2023-05-29T06:48:07;100955.02;;;18.26;52.39
78615;BME280;67937;52.488;20.952;2023-05-29T06:50:35;100952.13;;;18.37;51.27
78615;BME280;67937;52.488;20.952;2023-05-29T06:53:03;100953.02;;;18.46;50.56
78615;BME280;67937;52.488;20.952;2023-05-29T06:55:31;100954.15;;;18.54;51.37
78615;BME280;67937;52.488;20.952;2023-05-29T06:58:00;100952.98;;;18.68;51.00
78615;BME280;67937;52.488;20.952;2023-05-29T07:00:28;100954.48;;;18.83;50.70
78615;BME280;67937;52.488;20.952;2023-05-29T07:02:56;100953.11;;;19.01;49.47
78615;BME280;67937;52.488;20.952;2023-05-29T07:05:26;100948.73;;;19.09;49.11
78615;BME280;67937;52.488;20.952;2023-05-29T07:07:54;100950.30;;;19.13;48.46
78615;BME280;67937;52.488;20.952;2023-05-29T07:10:22;100951.77;;;19.19;48.54
78615;BME280;67937;52.488;20.952;2023-05-29T07:12:50;100955.11;;;19.35;48.10
78615;BME280;67937;52.488;20.952;2023-05-29T07:15:18;100956.01;;;19.33;48.34
78615;BME280;67937;52.488;20.952;2023-05-29T07:17:47;100958.89;;;19.41;48.06
78615;BME280;67937;52.488;20.952;2023-05-29T07:20:15;100958.20;;;19.44;48.08
78615;BME280;67937;52.488;20.952;2023-05-29T07:22:45;100960.46;;;19.59;47.57
78615;BME280;67937;52.488;20.952;2023-05-29T07:25:13;100959.01;;;19.63;47.51
78615;BME280;67937;52.488;20.952;2023-05-29T07:27:41;100963.11;;;19.78;46.33
78615;BME280;67937;52.488;20.952;2023-05-29T07:30:10;100964.96;;;19.87;45.07
78615;BME280;67937;52.488;20.952;2023-05-29T07:32:39;100965.95;;;19.93;44.42
78615;BME280;67937;52.488;20.952;2023-05-29T07:35:07;100965.79;;;19.91;44.09
78615;BME280;67937;52.488;20.952;2023-05-29T07:37:36;100966.27;;;19.93;44.37
78615;BME280;67937;52.488;20.952;2023-05-29T07:40:04;100972.36;;;19.90;44.56
78615;BME280;67937;52.488;20.952;2023-05-29T07:42:33;100965.43;;;19.99;45.85
78615;BME280;67937;52.488;20.952;2023-05-29T07:45:02;100967.95;;;20.15;44.65
78615;BME280;67937;52.488;20.952;2023-05-29T07:47:30;100964.90;;;20.27;44.83
78615;BME280;67937;52.488;20.952;2023-05-29T07:49:59;100960.45;;;20.46;44.70
78615;BME280;67937;52.488;20.952;2023-05-29T07:52:27;100962.51;;;20.61;42.69
78615;BME280;67937;52.488;20.952;2023-05-29T07:54:55;100956.08;;;20.60;42.70
78615;BME280;67937;52.488;20.952;2023-05-29T07:57:23;100955.88;;;20.55;42.39
78615;BME280;67937;52.488;20.952;2023-05-29T07:59:51;100958.57;;;20.63;40.95
78615;BME280;67937;52.488;20.952;2023-05-29T08:02:19;100960.02;;;20.61;41.62
78615;BME280;67937;52.488;20.952;2023-05-29T08:04:48;100960.17;;;20.62;40.99
78615;BME280;67937;52.488;20.952;2023-05-29T08:07:16;100962.02;;;20.63;41.02
78615;BME280;67937;52.488;20.952;2023-05-29T08:09:44;100958.59;;;20.69;40.05
78615;BME280;67937;52.488;20.952;2023-05-29T08:12:12;100961.31;;;20.72;40.86
78615;BME280;67937;52.488;20.952;2023-05-29T08:14:40;100958.64;;;20.77;39.81
78615;BME280;67937;52.488;20.952;2023-05-29T08:17:08;100959.63;;;20.71;40.55
78615;BME280;67937;52.488;20.952;2023-05-29T08:19:36;100959.81;;;20.77;40.58
78615;BME280;67937;52.488;20.952;2023-05-29T08:22:05;100955.19;;;20.93;40.26
78615;BME280;67937;52.488;20.952;2023-05-29T08:24:33;100953.60;;;21.11;39.33
78615;BME280;67937;52.488;20.952;2023-05-29T08:27:01;100956.70;;;21.20;38.63
78615;BME280;67937;52.488;20.952;2023-05-29T08:29:29;100954.23;;;21.25;38.43
78615;BME280;67937;52.488;20.952;2023-05-29T08:31:57;100954.16;;;21.25;38.52
78615;BME280;67937;52.488;20.952;2023-05-29T08:34:25;100948.13;;;21.26;37.98
78615;BME280;67937;52.488;20.952;2023-05-29T08:36:53;100952.52;;;21.25;37.98
78615;BME280;67937;52.488;20.952;2023-05-29T08:39:22;100951.91;;;21.26;37.62
78615;BME280;67937;52.488;20.952;2023-05-29T08:42:01;100953.71;;;21.28;37.60
78615;BME280;67937;52.488;20.952;2023-05-29T08:44:31;100956.69;;;21.25;36.49
78615;BME280;67937;52.488;20.952;2023-05-29T08:47:02;100957.61;;;21.22;38.12
78615;BME280;67937;52.488;20.952;2023-05-29T08:49:40;100958.72;;;21.37;38.20
78615;BME280;67937;52.488;20.952;2023-05-29T08:52:14;100954.77;;;21.52;37.02
78615;BME280;67937;52.488;20.952;2023-05-29T08:54:43;100957.06;;;21.46;37.17
78615;BME280;67937;52.488;20.952;2023-05-29T08:57:12;100957.77;;;21.47;38.17
78615;BME280;67937;52.488;20.952;2023-05-29T08:59:44;100960.25;;;21.56;38.96
78615;BME280;67937;52.488;20.952;2023-05-29T09:02:13;100961.01;;;21.71;38.06
78615;BME280;67937;52.488;20.952;2023-05-29T09:04:42;100961.42;;;21.68;37.33
78615;BME280;67937;52.488;20.952;2023-05-29T09:07:12;100951.29;;;21.76;37.41
78615;BME280;67937;52.488;20.952;2023-05-29T09:09:41;100947.92;;;21.76;37.99
78615;BME280;67937;52.488;20.952;2023-05-29T09:12:09;100943.33;;;21.80;38.08
78615;BME280;67937;52.488;20.952;2023-05-29T09:14:40;100943.95;;;21.88;38.39
78615;BME280;67937;52.488;20.952;2023-05-29T09:17:10;100945.41;;;21.80;37.77
78615;BME280;67937;52.488;20.952;2023-05-29T09:19:39;100939.41;;;21.82;37.87
78615;BME280;67937;52.488;20.952;2023-05-29T09:22:10;100940.20;;;21.71;37.84
78615;BME280;67937;52.488;20.952;2023-05-29T09:24:42;100937.63;;;21.70;38.77
78615;BME280;67937;52.488;20.952;2023-05-29T09:27:11;100934.71;;;21.80;38.06
78615;BME280;67937;52.488;20.952;2023-05-29T09:29:41;100936.23;;;21.87;38.56
78615;BME280;67937;52.488;20.952;2023-05-29T09:32:14;100938.95;;;22.04;38.44
78615;BME280;67937;52.488;20.952;2023-05-29T09:34:47;100939.56;;;22.17;37.98
78615;BME280;67937;52.488;20.952;2023-05-29T09:37:16;100939.14;;;22.21;37.96
78615;BME280;67937;52.488;20.952;2023-05-29T09:39:54;100939.25;;;22.21;37.73
78615;BME280;67937;52.488;20.952;2023-05-29T09:42:24;100936.41;;;22.20;37.75
78615;BME280;67937;52.488;20.952;2023-05-29T09:44:52;100940.25;;;22.31;36.93
78615;BME280;67937;52.488;20.952;2023-05-29T09:47:21;100936.24;;;22.15;37.20
78615;BME280;67937;52.488;20.952;2023-05-29T09:49:49;100936.66;;;22.13;36.42
78615;BME280;67937;52.488;20.952;2023-05-29T09:52:21;100932.98;;;21.99;37.63
78615;BME280;67937;52.488;20.952;2023-05-29T09:54:50;100932.98;;;22.05;38.34
78615;BME280;67937;52.488;20.952;2023-05-29T09:57:20;100934.09;;;22.13;36.71
78615;BME280;67937;52.488;20.952;2023-05-29T09:59:52;100932.66;;;22.07;37.10
78615;BME280;67937;52.488;20.952;2023-05-29T10:02:21;100932.91;;;22.19;37.43
78615;BME280;67937;52.488;20.952;2023-05-29T10:04:49;100929.24;;;22.09;36.89
78615;BME280;67937;52.488;20.952;2023-05-29T10:07:25;100927.77;;;22.00;37.47
78615;BME280;67937;52.488;20.952;2023-05-29T10:09:59;100923.77;;;22.16;36.41
78615;BME280;67937;52.488;20.952;2023-05-29T10:12:28;100919.58;;;22.04;36.84
78615;BME280;67937;52.488;20.952;2023-05-29T10:14:59;100922.52;;;22.01;36.65
78615;BME280;67937;52.488;20.952;2023-05-29T10:17:33;100919.58;;;22.10;37.24
78615;BME280;67937;52.488;20.952;2023-05-29T10:20:04;100912.80;;;22.21;36.84
78615;BME280;67937;52.488;20.952;2023-05-29T10:22:36;100907.48;;;22.28;36.69
78615;BME280;67937;52.488;20.952;2023-05-29T10:25:09;100907.10;;;22.30;37.21
78615;BME280;67937;52.488;20.952;2023-05-29T10:27:37;100912.91;;;22.16;37.32
78615;BME280;67937;52.488;20.952;2023-05-29T10:30:10;100909.74;;;22.20;37.81
78615;BME280;67937;52.488;20.952;2023-05-29T10:35:51;100915.84;;;22.74;37.98
78615;BME280;67937;52.488;20.952;2023-05-29T10:38:50;100911.90;;;22.92;37.08
78615;BME280;67937;52.488;20.952;2023-05-29T10:44:00;100909.48;;;23.09;36.47
78615;BME280;67937;52.488;20.952;2023-05-29T10:47:06;100904.10;;;23.21;37.19
78615;BME280;67937;52.488;20.952;2023-05-29T10:49:33;100906.17;;;23.20;36.60
78615;BME280;67937;52.488;20.952;2023-05-29T10:52:03;100904.40;;;23.39;37.01
78615;BME280;67937;52.488;20.952;2023-05-29T10:54:41;100903.41;;;23.25;35.45
78615;BME280;67937;52.488;20.952;2023-05-29T10:57:21;100900.40;;;23.26;36.44
78615;BME280;67937;52.488;20.952;2023-05-29T10:59:59;100902.21;;;23.27;36.20
78615;BME280;67937;52.488;20.952;2023-05-29T11:02:45;100899.77;;;23.02;36.84
78615;BME280;67937;52.488;20.952;2023-05-29T11:05:22;100901.23;;;23.08;37.59
78615;BME280;67937;52.488;20.952;2023-05-29T11:08:00;100899.00;;;23.05;38.04
78615;BME280;67937;52.488;20.952;2023-05-29T11:10:42;100894.98;;;23.02;38.13
78615;BME280;67937;52.488;20.952;2023-05-29T11:13:33;100890.77;;;22.95;38.16
78615;BME280;67937;52.488;20.952;2023-05-29T11:18:41;100886.84;;;22.81;38.76
78615;BME280;67937;52.488;20.952;2023-05-29T11:21:34;100892.05;;;22.74;38.93
78615;BME280;67937;52.488;20.952;2023-05-29T11:24:03;100896.09;;;22.67;39.05
78615;BME280;67937;52.488;20.952;2023-05-29T11:26:34;100895.86;;;22.65;39.30
78615;BME280;67937;52.488;20.952;2023-05-29T11:29:05;100895.70;;;22.59;39.25
78615;BME280;67937;52.488;20.952;2023-05-29T11:31:39;100895.49;;;22.53;39.89
78615;BME280;67937;52.488;20.952;2023-05-29T11:34:09;100895.65;;;22.55;39.83
78615;BME280;67937;52.488;20.952;2023-05-29T11:36:41;100891.39;;;22.56;39.43
78615;BME280;67937;52.488;20.952;2023-05-29T11:39:10;100892.15;;;22.54;39.21
78615;BME280;67937;52.488;20.952;2023-05-29T11:41:38;100888.39;;;22.57;39.49
78615;BME280;67937;52.488;20.952;2023-05-29T11:44:07;100886.27;;;22.61;39.80
78615;BME280;67937;52.488;20.952;2023-05-29T11:46:35;100885.60;;;22.62;39.67
78615;BME280;67937;52.488;20.952;2023-05-29T11:49:03;100882.33;;;22.65;39.78
78615;BME280;67937;52.488;20.952;2023-05-29T11:51:32;100880.13;;;22.62;39.65
78615;BME280;67937;52.488;20.952;2023-05-29T11:54:00;100881.34;;;22.63;39.57
78615;BME280;67937;52.488;20.952;2023-05-29T11:56:29;100875.30;;;22.71;38.89
78615;BME280;67937;52.488;20.952;2023-05-29T11:58:59;100878.83;;;22.66;39.63
78615;BME280;67937;52.488;20.952;2023-05-29T12:01:28;100872.29;;;22.96;38.67
78615;BME280;67937;52.488;20.952;2023-05-29T12:03:57;100870.73;;;23.17;38.13
78615;BME280;67937;52.488;20.952;2023-05-29T12:06:32;100870.16;;;23.24;38.46
78615;BME280;67937;52.488;20.952;2023-05-29T12:09:05;100862.30;;;23.47;38.76
78615;BME280;67937;52.488;20.952;2023-05-29T12:11:34;100862.36;;;23.74;37.50
78615;BME280;67937;52.488;20.952;2023-05-29T12:14:02;100861.85;;;23.90;37.46
78615;BME280;67937;52.488;20.952;2023-05-29T12:16:32;100857.19;;;24.01;37.71
78615;BME280;67937;52.488;20.952;2023-05-29T12:19:02;100856.78;;;24.21;36.01
78615;BME280;67937;52.488;20.952;2023-05-29T12:21:31;100855.98;;;24.02;36.44
78615;BME280;67937;52.488;20.952;2023-05-29T12:23:59;100854.52;;;23.93;36.67
78615;BME280;67937;52.488;20.952;2023-05-29T12:26:29;100852.50;;;23.87;36.77
78615;BME280;67937;52.488;20.952;2023-05-29T12:29:02;100851.48;;;23.81;36.77
78615;BME280;67937;52.488;20.952;2023-05-29T12:31:32;100852.09;;;23.62;36.36
78615;BME280;67937;52.488;20.952;2023-05-29T12:34:08;100851.16;;;23.38;36.37
78615;BME280;67937;52.488;20.952;2023-05-29T12:36:40;100853.32;;;23.09;37.13
78615;BME280;67937;52.488;20.952;2023-05-29T12:39:08;100854.20;;;23.04;37.93
78615;BME280;67937;52.488;20.952;2023-05-29T12:41:37;100848.12;;;23.28;37.09
78615;BME280;67937;52.488;20.952;2023-05-29T12:44:07;100841.88;;;23.53;36.43
78615;BME280;67937;52.488;20.952;2023-05-29T12:46:37;100844.77;;;23.63;35.64
78615;BME280;67937;52.488;20.952;2023-05-29T12:49:13;100838.06;;;23.53;36.07
78615;BME280;67937;52.488;20.952;2023-05-29T12:51:44;100839.67;;;23.72;35.62
78615;BME280;67937;52.488;20.952;2023-05-29T12:54:16;100835.97;;;23.56;35.30
78615;BME280;67937;52.488;20.952;2023-05-29T12:56:44;100834.00;;;23.23;36.01
78615;BME280;67937;52.488;20.952;2023-05-29T12:59:13;100833.95;;;23.09;36.29
78615;BME280;67937;52.488;20.952;2023-05-29T13:01:42;100830.49;;;23.25;35.88
78615;BME280;67937;52.488;20.952;2023-05-29T13:04:10;100824.10;;;23.25;35.74
78615;BME280;67937;52.488;20.952;2023-05-29T13:06:39;100828.10;;;23.17;35.86
78615;BME280;67937;52.488;20.952;2023-05-29T13:09:07;100826.04;;;23.10;36.19
78615;BME280;67937;52.488;20.952;2023-05-29T13:11:35;100821.78;;;23.12;35.36
78615;BME280;67937;52.488;20.952;2023-05-29T13:14:04;100817.55;;;22.83;36.08
78615;BME280;67937;52.488;20.952;2023-05-29T13:16:33;100816.65;;;22.65;36.46